sensor_id;sensor_type;location;lat;lon;timestamp;pressure;altitude;pressure_sealevel;temperature;humidity
15260;BME280;34462;51.368;12.364;2023-07-29T00:01:40;21139.16;;;-141.84;79.35
15260;BME280;34462;51.368;12.364;2023-07-29T00:04:09;21143.22;;;-141.84;79.47
15260;BME280;34462;51.368;12.364;2023-07-29T00:06:37;21143.22;;;-141.84;79.20
15260;BME280;34462;51.368;12.364;2023-07-29T00:09:06;21167.63;;;-141.84;78.03
15260;BME280;34462;51.368;12.364;2023-07-29T00:11:34;21151.34;;;-141.84;78.09
15260;BME280;34462;51.368;12.364;2023-07-29T00:14:04;21133.06;;;-141.84;78.69
15260;BME280;34462;51.368;12.364;2023-07-29T00:16:33;21155.44;;;-141.84;79.17
15260;BME280;34462;51.368;12.364;2023-07-29T00:19:03;21145.25;;;-141.84;79.63
15260;BME280;34462;51.368;12.364;2023-07-29T00:21:31;21124.94;;;-141.84;79.67
15260;BME280;34462;51.368;12.364;2023-07-29T00:24:00;21076.13;;;-141.84;80.05
15260;BME280;34462;51.368;12.364;2023-07-29T00:26:28;21100.53;;;-141.84;79.97
15260;BME280;34462;51.368;12.364;2023-07-29T00:28:57;21072.06;;;-141.84;80.30
15260;BME280;34462;51.368;12.364;2023-07-29T00:31:27;21106.63;;;-141.84;80.28
15260;BME280;34462;51.368;12.364;2023-07-29T00:33:55;21068.00;;;-141.84;80.43
15260;BME280;34462;51.368;12.364;2023-07-29T00:36:25;21116.78;;;-141.84;80.14
15260;BME280;34462;51.368;12.364;2023-07-29T00:38:53;21129.00;;;-141.84;79.39
15260;BME280;34462;51.368;12.364;2023-07-29T00:41:24;21155.44;;;-141.84;78.73
15260;BME280;34462;51.368;12.364;2023-07-29T00:43:53;21133.06;;;-141.84;78.38
15260;BME280;34462;51.368;12.364;2023-07-29T00:46:22;21139.16;;;-141.84;78.00
15260;BME280;34462;51.368;12.364;2023-07-29T00:48:53;21165.59;;;-141.84;78.66
15260;BME280;34462;51.368;12.364;2023-07-29T00:51:21;21147.28;;;-141.84;78.41
15260;BME280;34462;51.368;12.364;2023-07-29T00:53:50;21161.53;;;-141.84;78.87
15260;BME280;34462;51.368;12.364;2023-07-29T00:56:18;21192.03;;;-141.84;78.57
15260;BME280;34462;51.368;12.364;2023-07-29T00:58:47;21190.00;;;-141.84;78.80
15260;BME280;34462;51.368;12.364;2023-07-29T01:01:15;21173.72;;;-141.84;79.19
15260;BME280;34462;51.368;12.364;2023-07-29T01:03:45;21171.69;;;-141.84;79.20
15260;BME280;34462;51.368;12.364;2023-07-29T01:06:22;21145.25;;;-141.84;79.61
15260;BME280;34462;51.368;12.364;2023-07-29T01:08:55;21118.84;;;-141.84;79.82
15260;BME280;34462;51.368;12.364;2023-07-29T01:11:35;21151.34;;;-141.84;80.33
15260;BME280;34462;51.368;12.364;2023-07-29T01:14:12;21100.53;;;-141.84;80.21
15260;BME280;34462;51.368;12.364;2023-07-29T01:16:49;21114.75;;;-141.84;80.43
15260;BME280;34462;51.368;12.364;2023-07-29T01:19:35;21116.78;;;-141.84;80.49
15260;BME280;34462;51.368;12.364;2023-07-29T01:22:11;21094.44;;;-141.84;80.58
15260;BME280;34462;51.368;12.364;2023-07-29T01:24:42;21045.63;;;-141.84;81.17
15260;BME280;34462;51.368;12.364;2023-07-29T01:27:10;21031.41;;;-141.84;81.98
15260;BME280;34462;51.368;12.364;2023-07-29T01:29:39;21037.50;;;-141.84;81.96
15260;BME280;34462;51.368;12.364;2023-07-29T01:32:11;21102.56;;;-141.84;81.79
15260;BME280;34462;51.368;12.364;2023-07-29T01:34:47;21096.47;;;-141.84;81.84
15260;BME280;34462;51.368;12.364;2023-07-29T01:37:24;21055.81;;;-141.84;81.89
15260;BME280;34462;51.368;12.364;2023-07-29T01:39:57;21122.91;;;-141.84;80.90
15260;BME280;34462;51.368;12.364;2023-07-29T01:42:28;21110.69;;;-141.84;79.77
15260;BME280;34462;51.368;12.364;2023-07-29T01:44:57;21100.53;;;-141.84;79.93
15260;BME280;34462;51.368;12.364;2023-07-29T01:47:26;21122.91;;;-141.84;79.82
15260;BME280;34462;51.368;12.364;2023-07-29T01:49:54;21139.16;;;-141.84;79.90
15260;BME280;34462;51.368;12.364;2023-07-29T01:52:23;21120.88;;;-141.84;80.17
15260;BME280;34462;51.368;12.364;2023-07-29T01:54:51;21106.63;;;-141.84;79.86
15260;BME280;34462;51.368;12.364;2023-07-29T01:57:21;21118.84;;;-141.84;79.97
15260;BME280;34462;51.368;12.364;2023-07-29T01:59:50;21106.63;;;-141.84;79.92
15260;BME280;34462;51.368;12.364;2023-07-29T02:02:18;21120.88;;;-141.84;80.28
15260;BME280;34462;51.368;12.364;2023-07-29T02:04:47;21120.88;;;-141.84;79.60
15260;BME280;34462;51.368;12.364;2023-07-29T02:07:18;21187.97;;;-141.84;78.69
15260;BME280;34462;51.368;12.364;2023-07-29T02:09:47;21116.78;;;-141.84;79.47
15260;BME280;34462;51.368;12.364;2023-07-29T02:12:15;21106.63;;;-141.84;79.65
15260;BME280;34462;51.368;12.364;2023-07-29T02:14:45;21116.78;;;-141.84;79.88
15260;BME280;34462;51.368;12.364;2023-07-29T02:17:14;21145.25;;;-141.84;79.04
15260;BME280;34462;51.368;12.364;2023-07-29T02:19:43;21145.25;;;-141.84;79.24
15260;BME280;34462;51.368;12.364;2023-07-29T02:22:13;21126.97;;;-141.84;79.77
15260;BME280;34462;51.368;12.364;2023-07-29T02:24:41;21104.59;;;-141.84;80.34
15260;BME280;34462;51.368;12.364;2023-07-29T02:27:10;21131.03;;;-141.84;80.41
15260;BME280;34462;51.368;12.364;2023-07-29T02:29:39;21100.53;;;-141.84;80.55
15260;BME280;34462;51.368;12.364;2023-07-29T02:32:08;21143.22;;;-141.84;79.34
15260;BME280;34462;51.368;12.364;2023-07-29T02:34:37;21104.59;;;-141.84;79.44
15260;BME280;34462;51.368;12.364;2023-07-29T02:37:05;21057.84;;;-141.84;80.16
15260;BME280;34462;51.368;12.364;2023-07-29T02:39:35;21090.38;;;-141.84;80.14
15260;BME280;34462;51.368;12.364;2023-07-29T02:42:04;21143.22;;;-141.84;79.27
15260;BME280;34462;51.368;12.364;2023-07-29T02:44:32;21110.69;;;-141.84;80.00
15260;BME280;34462;51.368;12.364;2023-07-29T02:47:01;21015.16;;;-141.84;81.11
15260;BME280;34462;51.368;12.364;2023-07-29T02:49:31;21029.38;;;-141.84;81.66
15260;BME280;34462;51.368;12.364;2023-07-29T02:51:59;21017.19;;;-141.84;82.28
15260;BME280;34462;51.368;12.364;2023-07-29T02:54:28;21011.09;;;-141.84;82.45
15260;BME280;34462;51.368;12.364;2023-07-29T02:56:56;20964.31;;;-141.84;83.04
15260;BME280;34462;51.368;12.364;2023-07-29T02:59:25;20956.19;;;-141.84;83.18
15260;BME280;34462;51.368;12.364;2023-07-29T03:01:53;20986.69;;;-141.84;83.44
15260;BME280;34462;51.368;12.364;2023-07-29T03:04:21;20935.88;;;-141.84;83.97
15260;BME280;34462;51.368;12.364;2023-07-29T03:06:52;21004.97;;;-141.84;83.46
15260;BME280;34462;51.368;12.364;2023-07-29T03:09:20;20986.69;;;-141.84;83.51
15260;BME280;34462;51.368;12.364;2023-07-29T03:11:49;20998.88;;;-141.84;83.53
15260;BME280;34462;51.368;12.364;2023-07-29T03:14:19;20982.63;;;-141.84;83.24
15260;BME280;34462;51.368;12.364;2023-07-29T03:16:47;20992.78;;;-141.84;82.54
15260;BME280;34462;51.368;12.364;2023-07-29T03:19:16;20944.00;;;-141.84;83.93
15260;BME280;34462;51.368;12.364;2023-07-29T03:21:44;20980.59;;;-141.84;84.03
15260;BME280;34462;51.368;12.364;2023-07-29T03:24:14;20952.13;;;-141.84;83.96
15260;BME280;34462;51.368;12.364;2023-07-29T03:26:43;20917.56;;;-141.84;84.60
15260;BME280;34462;51.368;12.364;2023-07-29T03:29:13;20893.16;;;-141.84;84.97
15260;BME280;34462;51.368;12.364;2023-07-29T03:31:41;20921.63;;;-141.84;84.97
15260;BME280;34462;51.368;12.364;2023-07-29T03:34:10;20939.94;;;-141.84;84.97
15260;BME280;34462;51.368;12.364;2023-07-29T03:36:39;20956.19;;;-141.84;84.65
15260;BME280;34462;51.368;12.364;2023-07-29T03:39:08;20956.19;;;-141.84;84.43
15260;BME280;34462;51.368;12.364;2023-07-29T03:41:38;20960.25;;;-141.84;83.10
15260;BME280;34462;51.368;12.364;2023-07-29T03:44:07;20944.00;;;-141.84;84.16
15260;BME280;34462;51.368;12.364;2023-07-29T03:46:35;20968.38;;;-141.84;84.16
15260;BME280;34462;51.368;12.364;2023-07-29T03:49:04;20964.31;;;-141.84;83.81
15260;BME280;34462;51.368;12.364;2023-07-29T03:51:33;20998.88;;;-141.84;82.92
15260;BME280;34462;51.368;12.364;2023-07-29T03:54:02;20948.06;;;-141.84;83.46
15260;BME280;34462;51.368;12.364;2023-07-29T03:56:31;20978.56;;;-141.84;83.51
15260;BME280;34462;51.368;12.364;2023-07-29T03:59:05;20925.69;;;-141.84;84.34
15260;BME280;34462;51.368;12.364;2023-07-29T04:01:33;20944.00;;;-141.84;84.44
15260;BME280;34462;51.368;12.364;2023-07-29T04:04:02;20952.13;;;-141.84;83.75
15260;BME280;34462;51.368;12.364;2023-07-29T04:06:31;20954.16;;;-141.84;83.71
15260;BME280;34462;51.368;12.364;2023-07-29T04:09:01;20931.78;;;-141.84;84.28
15260;BME280;34462;51.368;12.364;2023-07-29T04:11:29;20996.84;;;-141.84;83.33
15260;BME280;34462;51.368;12.364;2023-07-29T04:13:58;21000.91;;;-141.84;82.68
15260;BME280;34462;51.368;12.364;2023-07-29T04:16:28;20996.84;;;-141.84;82.73
15260;BME280;34462;51.368;12.364;2023-07-29T04:18:56;20939.94;;;-141.84;83.56
15260;BME280;34462;51.368;12.364;2023-07-29T04:21:25;20946.03;;;-141.84;83.94
15260;BME280;34462;51.368;12.364;2023-07-29T04:23:54;20937.91;;;-141.84;84.00
15260;BME280;34462;51.368;12.364;2023-07-29T04:26:22;20944.00;;;-141.84;83.10
15260;BME280;34462;51.368;12.364;2023-07-29T04:28:50;20950.09;;;-141.84;83.45
15260;BME280;34462;51.368;12.364;2023-07-29T04:31:19;20956.19;;;-141.84;83.75
15260;BME280;34462;51.368;12.364;2023-07-29T04:33:49;20988.72;;;-141.84;83.89
15260;BME280;34462;51.368;12.364;2023-07-29T04:36:17;20978.56;;;-141.84;83.01
15260;BME280;34462;51.368;12.364;2023-07-29T04:38:46;21000.91;;;-141.84;81.85
15260;BME280;34462;51.368;12.364;2023-07-29T04:41:14;20972.47;;;-141.84;82.33
15260;BME280;34462;51.368;12.364;2023-07-29T04:43:43;20996.84;;;-141.84;82.56
15260;BME280;34462;51.368;12.364;2023-07-29T04:46:11;20992.78;;;-141.84;82.46
15260;BME280;34462;51.368;12.364;2023-07-29T04:48:40;21004.97;;;-141.84;82.36
15260;BME280;34462;51.368;12.364;2023-07-29T04:51:10;21039.53;;;-141.84;81.52
15260;BME280;34462;51.368;12.364;2023-07-29T04:53:38;21049.72;;;-141.84;81.09
15260;BME280;34462;51.368;12.364;2023-07-29T04:56:07;21063.94;;;-141.84;80.34
15260;BME280;34462;51.368;12.364;2023-07-29T04:58:35;21070.03;;;-141.84;80.42
15260;BME280;34462;51.368;12.364;2023-07-29T05:01:04;21181.84;;;-141.84;78.68
15260;BME280;34462;51.368;12.364;2023-07-29T05:03:33;21460.41;;;-141.84;74.44
15260;BME280;34462;51.368;12.364;2023-07-29T05:06:01;21968.72;;;-141.84;67.52
15260;BME280;34462;51.368;12.364;2023-07-29T05:08:31;22599.16;;;-141.84;59.88
15260;BME280;34462;51.368;12.364;2023-07-29T05:11:00;23150.38;;;-141.84;54.61
15260;BME280;34462;51.368;12.364;2023-07-29T05:13:28;23597.91;;;-141.84;51.17
15260;BME280;34462;51.368;12.364;2023-07-29T05:15:57;23929.50;;;-141.84;49.05
15260;BME280;34462;51.368;12.364;2023-07-29T05:18:25;24004.78;;;-141.84;47.36
15260;BME280;34462;51.368;12.364;2023-07-29T05:20:54;24263.19;;;-141.84;46.10
15260;BME280;34462;51.368;12.364;2023-07-29T05:23:22;24037.34;;;-141.84;47.25
15260;BME280;34462;51.368;12.364;2023-07-29T05:25:53;23960.03;;;-141.84;46.88
15260;BME280;34462;51.368;12.364;2023-07-29T05:28:21;23557.22;;;-141.84;48.93
15260;BME280;34462;51.368;12.364;2023-07-29T05:30:50;23254.09;;;-141.84;51.29
15260;BME280;34462;51.368;12.364;2023-07-29T05:33:18;22839.16;;;-141.84;54.40
15260;BME280;34462;51.368;12.364;2023-07-29T05:35:47;22631.72;;;-141.84;56.52
15260;BME280;34462;51.368;12.364;2023-07-29T05:38:15;22432.41;;;-141.84;57.89
15260;BME280;34462;51.368;12.364;2023-07-29T05:40:44;22304.28;;;-141.84;60.16
15260;BME280;34462;51.368;12.364;2023-07-29T05:43:14;22243.25;;;-141.84;60.82
15260;BME280;34462;51.368;12.364;2023-07-29T05:45:42;22147.69;;;-141.84;61.81
15260;BME280;34462;51.368;12.364;2023-07-29T05:48:10;22094.81;;;-141.84;62.77
15260;BME280;34462;51.368;12.364;2023-07-29T05:50:39;22068.38;;;-141.84;63.34
15260;BME280;34462;51.368;12.364;2023-07-29T05:53:07;22029.75;;;-141.84;63.87
15260;BME280;34462;51.368;12.364;2023-07-29T05:55:36;22035.84;;;-141.84;63.70
15260;BME280;34462;51.368;12.364;2023-07-29T05:58:04;22096.84;;;-141.84;63.38
15260;BME280;34462;51.368;12.364;2023-07-29T06:00:34;22127.34;;;-141.84;62.89
15260;BME280;34462;51.368;12.364;2023-07-29T06:03:03;22102.94;;;-141.84;63.00
15260;BME280;34462;51.368;12.364;2023-07-29T06:05:31;22100.91;;;-141.84;62.72
15260;BME280;34462;51.368;12.364;2023-07-29T06:08:00;22155.81;;;-141.84;62.58
15260;BME280;34462;51.368;12.364;2023-07-29T06:10:28;22176.16;;;-141.84;61.85
15260;BME280;34462;51.368;12.364;2023-07-29T06:12:57;22166.00;;;-141.84;61.55
15260;BME280;34462;51.368;12.364;2023-07-29T06:15:25;22243.25;;;-141.84;61.20
15260;BME280;34462;51.368;12.364;2023-07-29T06:17:55;22336.81;;;-141.84;60.23
15260;BME280;34462;51.368;12.364;2023-07-29T06:20:24;22290.03;;;-141.84;60.56
15260;BME280;34462;51.368;12.364;2023-07-29T06:22:52;22271.72;;;-141.84;60.05
15260;BME280;34462;51.368;12.364;2023-07-29T06:25:21;22279.88;;;-141.84;60.45
15260;BME280;34462;51.368;12.364;2023-07-29T06:27:50;22247.34;;;-141.84;59.89
15260;BME280;34462;51.368;12.364;2023-07-29T06:30:18;22227.00;;;-141.84;60.88
15260;BME280;34462;51.368;12.364;2023-07-29T06:32:47;22198.53;;;-141.84;60.60
15260;BME280;34462;51.368;12.364;2023-07-29T06:35:17;22220.91;;;-141.84;61.22
15260;BME280;34462;51.368;12.364;2023-07-29T06:37:45;22239.19;;;-141.84;60.51
15260;BME280;34462;51.368;12.364;2023-07-29T06:40:14;22220.91;;;-141.84;60.73
15260;BME280;34462;51.368;12.364;2023-07-29T06:42:42;22233.09;;;-141.84;60.96
15260;BME280;34462;51.368;12.364;2023-07-29T06:45:11;22294.09;;;-141.84;61.12
15260;BME280;34462;51.368;12.364;2023-07-29T06:47:39;22314.44;;;-141.84;59.94
15260;BME280;34462;51.368;12.364;2023-07-29T06:50:08;22346.97;;;-141.84;59.26
15260;BME280;34462;51.368;12.364;2023-07-29T06:52:38;22312.41;;;-141.84;59.46
15260;BME280;34462;51.368;12.364;2023-07-29T06:55:08;22381.56;;;-141.84;59.52
15260;BME280;34462;51.368;12.364;2023-07-29T06:57:36;22399.84;;;-141.84;58.88
15260;BME280;34462;51.368;12.364;2023-07-29T07:00:06;22310.38;;;-141.84;59.83
15260;BME280;34462;51.368;12.364;2023-07-29T07:02:36;22342.91;;;-141.84;59.90
15260;BME280;34462;51.368;12.364;2023-07-29T07:05:05;22424.25;;;-141.84;59.26
15260;BME280;34462;51.368;12.364;2023-07-29T07:07:34;22540.19;;;-141.84;58.40
15260;BME280;34462;51.368;12.364;2023-07-29T07:10:04;22645.94;;;-141.84;56.80
15260;BME280;34462;51.368;12.364;2023-07-29T07:12:33;22806.63;;;-141.84;55.08
15260;BME280;34462;51.368;12.364;2023-07-29T07:15:02;22861.53;;;-141.84;54.71
15260;BME280;34462;51.368;12.364;2023-07-29T07:17:30;22957.13;;;-141.84;53.73
15260;BME280;34462;51.368;12.364;2023-07-29T07:19:59;22961.19;;;-141.84;53.46
15260;BME280;34462;51.368;12.364;2023-07-29T07:22:27;22908.31;;;-141.84;53.79
15260;BME280;34462;51.368;12.364;2023-07-29T07:24:55;22894.06;;;-141.84;53.72
15260;BME280;34462;51.368;12.364;2023-07-29T07:27:25;22938.81;;;-141.84;53.53
15260;BME280;34462;51.368;12.364;2023-07-29T07:29:54;22835.09;;;-141.84;54.25
15260;BME280;34462;51.368;12.364;2023-07-29T07:32:22;22808.66;;;-141.84;54.74
15260;BME280;34462;51.368;12.364;2023-07-29T07:34:51;22719.16;;;-141.84;54.23
15260;BME280;34462;51.368;12.364;2023-07-29T07:37:19;22711.03;;;-141.84;55.12
15260;BME280;34462;51.368;12.364;2023-07-29T07:39:48;22715.09;;;-141.84;54.47
15260;BME280;34462;51.368;12.364;2023-07-29T07:42:16;22778.16;;;-141.84;53.93
15260;BME280;34462;51.368;12.364;2023-07-29T07:44:46;22765.94;;;-141.84;53.98
15260;BME280;34462;51.368;12.364;2023-07-29T07:47:15;22808.66;;;-141.84;54.22
15260;BME280;34462;51.368;12.364;2023-07-29T07:49:43;22765.94;;;-141.84;54.60
15260;BME280;34462;51.368;12.364;2023-07-29T07:52:12;22857.47;;;-141.84;53.92
15260;BME280;34462;51.368;12.364;2023-07-29T07:54:40;22796.44;;;-141.84;53.34
15260;BME280;34462;51.368;12.364;2023-07-29T07:57:08;22765.94;;;-141.84;53.79
15260;BME280;34462;51.368;12.364;2023-07-29T07:59:37;22767.97;;;-141.84;54.14
15260;BME280;34462;51.368;12.364;2023-07-29T08:02:07;22721.19;;;-141.84;54.76
15260;BME280;34462;51.368;12.364;2023-07-29T08:04:35;22741.53;;;-141.84;54.83
15260;BME280;34462;51.368;12.364;2023-07-29T08:07:04;22737.47;;;-141.84;54.56
15260;BME280;34462;51.368;12.364;2023-07-29T08:09:33;22753.75;;;-141.84;54.32
15260;BME280;34462;51.368;12.364;2023-07-29T08:12:02;22747.63;;;-141.84;54.45
15260;BME280;34462;51.368;12.364;2023-07-29T08:14:30;22725.25;;;-141.84;54.89
15260;BME280;34462;51.368;12.364;2023-07-29T08:16:59;22650.00;;;-141.84;55.35
15260;BME280;34462;51.368;12.364;2023-07-29T08:19:28;22647.97;;;-141.84;55.65
15260;BME280;34462;51.368;12.364;2023-07-29T08:21:57;22586.97;;;-141.84;56.25
15260;BME280;34462;51.368;12.364;2023-07-29T08:24:25;22617.47;;;-141.84;56.44
15260;BME280;34462;51.368;12.364;2023-07-29T08:26:54;22621.53;;;-141.84;56.30
15260;BME280;34462;51.368;12.364;2023-07-29T08:29:22;22631.72;;;-141.84;56.12
15260;BME280;34462;51.368;12.364;2023-07-29T08:31:51;22741.53;;;-141.84;55.87
15260;BME280;34462;51.368;12.364;2023-07-29T08:34:19;22721.19;;;-141.84;54.77
15260;BME280;34462;51.368;12.364;2023-07-29T08:36:49;22702.88;;;-141.84;54.84
15260;BME280;34462;51.368;12.364;2023-07-29T08:39:18;22761.88;;;-141.84;54.51
15260;BME280;34462;51.368;12.364;2023-07-29T08:42:00;22961.19;;;-141.84;52.86
15260;BME280;34462;51.368;12.364;2023-07-29T08:44:34;22942.91;;;-141.84;52.06
15260;BME280;34462;51.368;12.364;2023-07-29T08:47:04;23010.00;;;-141.84;52.54
15260;BME280;34462;51.368;12.364;2023-07-29T08:49:34;23050.69;;;-141.84;52.04
15260;BME280;34462;51.368;12.364;2023-07-29T08:52:05;23030.34;;;-141.84;52.39
15260;BME280;34462;51.368;12.364;2023-07-29T08:54:35;23158.50;;;-141.84;51.61
15260;BME280;34462;51.368;12.364;2023-07-29T08:57:04;23101.53;;;-141.84;51.62
15260;BME280;34462;51.368;12.364;2023-07-29T08:59:34;23107.66;;;-141.84;52.25
15260;BME280;34462;51.368;12.364;2023-07-29T09:02:02;23186.97;;;-141.84;51.35
15260;BME280;34462;51.368;12.364;2023-07-29T09:04:31;23186.97;;;-141.84;51.78
15260;BME280;34462;51.368;12.364;2023-07-29T09:07:00;23217.50;;;-141.84;51.66
15260;BME280;34462;51.368;12.364;2023-07-29T09:09:30;23205.28;;;-141.84;51.47
15260;BME280;34462;51.368;12.364;2023-07-29T09:11:58;23309.03;;;-141.84;50.07
15260;BME280;34462;51.368;12.364;2023-07-29T09:14:27;23325.31;;;-141.84;50.17
15260;BME280;34462;51.368;12.364;2023-07-29T09:16:56;23315.13;;;-141.84;50.31
15260;BME280;34462;51.368;12.364;2023-07-29T09:19:25;23300.91;;;-141.84;50.33
15260;BME280;34462;51.368;12.364;2023-07-29T09:21:54;23319.19;;;-141.84;49.94
15260;BME280;34462;51.368;12.364;2023-07-29T09:24:23;23349.72;;;-141.84;50.35
15260;BME280;34462;51.368;12.364;2023-07-29T09:26:53;23429.03;;;-141.84;49.37
15260;BME280;34462;51.368;12.364;2023-07-29T09:29:22;23302.94;;;-141.84;49.52
15260;BME280;34462;51.368;12.364;2023-07-29T09:31:51;23248.00;;;-141.84;50.00
15260;BME280;34462;51.368;12.364;2023-07-29T09:34:20;23258.19;;;-141.84;49.36
15260;BME280;34462;51.368;12.364;2023-07-29T09:36:51;23262.25;;;-141.84;49.93
15260;BME280;34462;51.368;12.364;2023-07-29T09:39:23;23298.84;;;-141.84;49.69
15260;BME280;34462;51.368;12.364;2023-07-29T09:41:53;23355.81;;;-141.84;49.62
15260;BME280;34462;51.368;12.364;2023-07-29T09:44:21;23321.22;;;-141.84;49.83
15260;BME280;34462;51.368;12.364;2023-07-29T09:46:50;23241.91;;;-141.84;50.74
15260;BME280;34462;51.368;12.364;2023-07-29T09:49:18;23195.13;;;-141.84;50.97
15260;BME280;34462;51.368;12.364;2023-07-29T09:51:47;23136.13;;;-141.84;51.79
15260;BME280;34462;51.368;12.364;2023-07-29T09:54:17;23097.47;;;-141.84;51.51
15260;BME280;34462;51.368;12.364;2023-07-29T09:56:45;23071.03;;;-141.84;52.04
15260;BME280;34462;51.368;12.364;2023-07-29T09:59:19;23012.06;;;-141.84;52.54
15260;BME280;34462;51.368;12.364;2023-07-29T10:01:47;22920.53;;;-141.84;52.57
15260;BME280;34462;51.368;12.364;2023-07-29T10:04:16;23042.56;;;-141.84;52.33
15260;BME280;34462;51.368;12.364;2023-07-29T10:06:46;23018.16;;;-141.84;51.97
15260;BME280;34462;51.368;12.364;2023-07-29T10:09:14;23087.31;;;-141.84;51.71
15260;BME280;34462;51.368;12.364;2023-07-29T10:11:44;23191.06;;;-141.84;52.09
15260;BME280;34462;51.368;12.364;2023-07-29T10:14:13;23237.84;;;-141.84;51.38
15260;BME280;34462;51.368;12.364;2023-07-29T10:16:44;23315.13;;;-141.84;50.83
15260;BME280;34462;51.368;12.364;2023-07-29T10:19:14;23380.22;;;-141.84;50.36
15260;BME280;34462;51.368;12.364;2023-07-29T10:21:45;23341.56;;;-141.84;49.97
15260;BME280;34462;51.368;12.364;2023-07-29T10:24:19;23256.13;;;-141.84;50.84
15260;BME280;34462;51.368;12.364;2023-07-29T10:26:58;23174.78;;;-141.84;51.52
15260;BME280;34462;51.368;12.364;2023-07-29T10:29:30;22993.75;;;-141.84;53.16
15260;BME280;34462;51.368;12.364;2023-07-29T10:32:02;22973.41;;;-141.84;53.29
15260;BME280;34462;51.368;12.364;2023-07-29T10:34:31;22841.19;;;-141.84;54.23
15260;BME280;34462;51.368;12.364;2023-07-29T10:37:01;22869.66;;;-141.84;54.58
15260;BME280;34462;51.368;12.364;2023-07-29T10:39:38;22922.56;;;-141.84;54.24
15260;BME280;34462;51.368;12.364;2023-07-29T10:42:07;22924.59;;;-141.84;53.96
15260;BME280;34462;51.368;12.364;2023-07-29T10:44:50;22989.69;;;-141.84;53.54
15260;BME280;34462;51.368;12.364;2023-07-29T10:47:21;23077.13;;;-141.84;53.06
15260;BME280;34462;51.368;12.364;2023-07-29T10:49:52;23134.09;;;-141.84;53.32
15260;BME280;34462;51.368;12.364;2023-07-29T10:52:39;22932.72;;;-141.84;57.59
15260;BME280;34462;51.368;12.364;2023-07-29T10:55:27;22767.97;;;-141.84;59.93
15260;BME280;34462;51.368;12.364;2023-07-29T10:58:07;22729.34;;;-141.84;61.48
15260;BME280;34462;51.368;12.364;2023-07-29T11:00:35;22802.56;;;-141.84;61.84
15260;BME280;34462;51.368;12.364;2023-07-29T11:03:06;22926.63;;;-141.84;60.98
15260;BME280;34462;51.368;12.364;2023-07-29T11:05:53;22926.63;;;-141.84;60.53
15260;BME280;34462;51.368;12.364;2023-07-29T11:08:26;23121.88;;;-141.84;59.28
15260;BME280;34462;51.368;12.364;2023-07-29T11:11:01;23007.97;;;-141.84;59.17
15260;BME280;34462;51.368;12.364;2023-07-29T11:13:31;23005.94;;;-141.84;57.22
15260;BME280;34462;51.368;12.364;2023-07-29T11:16:00;22942.91;;;-141.84;58.34
15260;BME280;34462;51.368;12.364;2023-07-29T11:18:31;23048.66;;;-141.84;57.99
15260;BME280;34462;51.368;12.364;2023-07-29T11:21:01;23091.38;;;-141.84;57.38
15260;BME280;34462;51.368;12.364;2023-07-29T11:23:32;23058.84;;;-141.84;56.88
15260;BME280;34462;51.368;12.364;2023-07-29T11:26:01;23012.06;;;-141.84;56.99
15260;BME280;34462;51.368;12.364;2023-07-29T11:28:30;22928.66;;;-141.84;56.05
15260;BME280;34462;51.368;12.364;2023-07-29T11:30:59;22910.34;;;-141.84;56.57
15260;BME280;34462;51.368;12.364;2023-07-29T11:33:29;22898.16;;;-141.84;55.77
15260;BME280;34462;51.368;12.364;2023-07-29T11:35:57;22924.59;;;-141.84;54.64
15260;BME280;34462;51.368;12.364;2023-07-29T11:38:26;23014.09;;;-141.84;54.60
15260;BME280;34462;51.368;12.364;2023-07-29T11:40:59;23075.09;;;-141.84;51.95
15260;BME280;34462;51.368;12.364;2023-07-29T11:43:30;23058.84;;;-141.84;53.84
15260;BME280;34462;51.368;12.364;2023-07-29T11:46:03;23101.53;;;-141.84;52.16
15260;BME280;34462;51.368;12.364;2023-07-29T11:48:33;23160.53;;;-141.84;51.07
15260;BME280;34462;51.368;12.364;2023-07-29T11:51:02;23170.72;;;-141.84;50.88
15260;BME280;34462;51.368;12.364;2023-07-29T11:53:31;23180.88;;;-141.84;50.59
15260;BME280;34462;51.368;12.364;2023-07-29T11:56:01;23268.34;;;-141.84;49.76
15260;BME280;34462;51.368;12.364;2023-07-29T11:58:32;23231.72;;;-141.84;50.56
15260;BME280;34462;51.368;12.364;2023-07-29T12:01:00;23327.34;;;-141.84;49.90
15260;BME280;34462;51.368;12.364;2023-07-29T12:03:29;23408.72;;;-141.84;48.46
15260;BME280;34462;51.368;12.364;2023-07-29T12:05:59;23351.75;;;-141.84;48.80
15260;BME280;34462;51.368;12.364;2023-07-29T12:08:28;23217.50;;;-141.84;49.48
15260;BME280;34462;51.368;12.364;2023-07-29T12:10:57;23207.31;;;-141.84;50.92
15260;BME280;34462;51.368;12.364;2023-07-29T12:13:26;23235.81;;;-141.84;50.40
15260;BME280;34462;51.368;12.364;2023-07-29T12:16:01;23225.63;;;-141.84;49.42
15260;BME280;34462;51.368;12.364;2023-07-29T12:18:30;23146.28;;;-141.84;50.37
15260;BME280;34462;51.368;12.364;2023-07-29T12:21:01;23337.50;;;-141.84;49.75
15260;BME280;34462;51.368;12.364;2023-07-29T12:23:29;23296.81;;;-141.84;49.49
15260;BME280;34462;51.368;12.364;2023-07-29T12:25:59;23201.22;;;-141.84;49.61
15260;BME280;34462;51.368;12.364;2023-07-29T12:28:28;23231.72;;;-141.84;49.66
15260;BME280;34462;51.368;12.364;2023-07-29T12:30:57;23252.06;;;-141.84;49.50
15260;BME280;34462;51.368;12.364;2023-07-29T12:33:33;23258.19;;;-141.84;49.90
15260;BME280;34462;51.368;12.364;2023-07-29T12:36:03;23481.94;;;-141.84;48.03
15260;BME280;34462;51.368;12.364;2023-07-29T12:38:32;23437.19;;;-141.84;47.53
15260;BME280;34462;51.368;12.364;2023-07-29T12:41:00;23412.78;;;-141.84;47.90
15260;BME280;34462;51.368;12.364;2023-07-29T12:43:29;23599.94;;;-141.84;46.95